sensor_id;sensor_type;location;lat;lon;timestamp;temperature;humidity
22680;DHT22;11507;44.858;10.374;2023-05-15T00:00:58;11.00;99.90
22680;DHT22;11507;44.858;10.374;2023-05-15T00:03:23;11.10;99.90
22680;DHT22;11507;44.858;10.374;2023-05-15T00:05:51;11.10;99.90
22680;DHT22;11507;44.858;10.374;2023-05-15T00:08:17;11.10;99.90
22680;DHT22;11507;44.858;10.374;2023-05-15T00:10:43;11.10;99.90
22680;DHT22;11507;44.858;10.374;2023-05-15T00:13:11;11.10;99.90
22680;DHT22;11507;44.858;10.374;2023-05-15T00:15:36;11.00;99.90
22680;DHT22;11507;44.858;10.374;2023-05-15T00:18:03;11.00;99.90
22680;DHT22;11507;44.858;10.374;2023-05-15T00:20:29;11.00;99.90
22680;DHT22;11507;44.858;10.374;2023-05-15T00:22:54;11.00;99.90
22680;DHT22;11507;44.858;10.374;2023-05-15T00:25:21;11.00;99.90
22680;DHT22;11507;44.858;10.374;2023-05-15T00:27:47;10.90;99.90
22680;DHT22;11507;44.858;10.374;2023-05-15T00:30:14;10.90;99.90
22680;DHT22;11507;44.858;10.374;2023-05-15T00:32:41;10.90;99.90
22680;DHT22;11507;44.858;10.374;2023-05-15T00:35:07;10.90;99.90
22680;DHT22;11507;44.858;10.374;2023-05-15T00:37:33;10.90;99.90
22680;DHT22;11507;44.858;10.374;2023-05-15T00:39:59;11.00;99.90
22680;DHT22;11507;44.858;10.374;2023-05-15T00:42:25;11.00;99.90
22680;DHT22;11507;44.858;10.374;2023-05-15T00:44:52;11.00;99.90
22680;DHT22;11507;44.858;10.374;2023-05-15T00:47:20;11.00;99.90
22680;DHT22;11507;44.858;10.374;2023-05-15T00:49:48;11.10;99.90
22680;DHT22;11507;44.858;10.374;2023-05-15T00:52:14;11.10;99.90
22680;DHT22;11507;44.858;10.374;2023-05-15T00:54:41;11.20;99.90
22680;DHT22;11507;44.858;10.374;2023-05-15T00:57:10;11.30;99.90
22680;DHT22;11507;44.858;10.374;2023-05-15T00:59:38;11.30;99.90
22680;DHT22;11507;44.858;10.374;2023-05-15T01:02:05;11.30;99.90
22680;DHT22;11507;44.858;10.374;2023-05-15T01:04:30;11.40;99.90
22680;DHT22;11507;44.858;10.374;2023-05-15T01:06:56;11.40;99.90
22680;DHT22;11507;44.858;10.374;2023-05-15T01:09:25;11.30;99.90
22680;DHT22;11507;44.858;10.374;2023-05-15T01:11:53;11.30;99.90
22680;DHT22;11507;44.858;10.374;2023-05-15T01:14:19;11.20;99.90
22680;DHT22;11507;44.858;10.374;2023-05-15T01:16:45;11.20;99.90
22680;DHT22;11507;44.858;10.374;2023-05-15T01:19:11;11.10;99.90
22680;DHT22;11507;44.858;10.374;2023-05-15T01:32:49;10.80;99.90
22680;DHT22;11507;44.858;10.374;2023-05-15T01:37:45;10.60;99.90
22680;DHT22;11507;44.858;10.374;2023-05-15T01:40:17;10.60;99.90
22680;DHT22;11507;44.858;10.374;2023-05-15T01:42:55;10.50;99.90
22680;DHT22;11507;44.858;10.374;2023-05-15T01:45:24;10.40;99.90
22680;DHT22;11507;44.858;10.374;2023-05-15T01:47:52;10.30;99.90
22680;DHT22;11507;44.858;10.374;2023-05-15T01:50:19;10.30;99.90
22680;DHT22;11507;44.858;10.374;2023-05-15T01:52:49;10.20;99.90
22680;DHT22;11507;44.858;10.374;2023-05-15T01:55:17;10.20;99.90
22680;DHT22;11507;44.858;10.374;2023-05-15T01:57:46;10.10;99.90
22680;DHT22;11507;44.858;10.374;2023-05-15T02:00:13;10.10;99.90
22680;DHT22;11507;44.858;10.374;2023-05-15T02:02:45;10.10;99.90
22680;DHT22;11507;44.858;10.374;2023-05-15T02:05:12;10.10;99.90
22680;DHT22;11507;44.858;10.374;2023-05-15T02:07:43;10.10;99.90
22680;DHT22;11507;44.858;10.374;2023-05-15T02:10:13;10.00;99.90
22680;DHT22;11507;44.858;10.374;2023-05-15T02:12:45;10.00;99.90
22680;DHT22;11507;44.858;10.374;2023-05-15T02:15:16;9.90;99.90
22680;DHT22;11507;44.858;10.374;2023-05-15T02:17:47;9.90;99.90
22680;DHT22;11507;44.858;10.374;2023-05-15T02:20:14;9.90;99.90
22680;DHT22;11507;44.858;10.374;2023-05-15T02:22:40;9.90;99.90
22680;DHT22;11507;44.858;10.374;2023-05-15T02:25:07;9.90;99.90
22680;DHT22;11507;44.858;10.374;2023-05-15T02:27:47;9.90;99.90
22680;DHT22;11507;44.858;10.374;2023-05-15T02:30:20;9.90;99.90
22680;DHT22;11507;44.858;10.374;2023-05-15T02:35:57;10.00;99.90
22680;DHT22;11507;44.858;10.374;2023-05-15T02:38:28;9.90;99.90
22680;DHT22;11507;44.858;10.374;2023-05-15T02:40:55;9.90;99.90
22680;DHT22;11507;44.858;10.374;2023-05-15T02:43:22;9.90;99.90
22680;DHT22;11507;44.858;10.374;2023-05-15T02:45:50;9.90;99.90
22680;DHT22;11507;44.858;10.374;2023-05-15T02:48:17;9.80;99.90
22680;DHT22;11507;44.858;10.374;2023-05-15T02:50:44;9.80;99.90
22680;DHT22;11507;44.858;10.374;2023-05-15T02:53:11;9.70;99.90
22680;DHT22;11507;44.858;10.374;2023-05-15T02:55:39;9.70;99.90
22680;DHT22;11507;44.858;10.374;2023-05-15T02:58:04;9.60;99.90
22680;DHT22;11507;44.858;10.374;2023-05-15T03:00:30;9.50;99.90
22680;DHT22;11507;44.858;10.374;2023-05-15T03:02:56;9.50;99.90
22680;DHT22;11507;44.858;10.374;2023-05-15T03:05:22;9.50;99.90
22680;DHT22;11507;44.858;10.374;2023-05-15T03:07:48;9.50;99.90
22680;DHT22;11507;44.858;10.374;2023-05-15T03:10:13;9.50;99.90
22680;DHT22;11507;44.858;10.374;2023-05-15T03:12:40;9.50;99.90
22680;DHT22;11507;44.858;10.374;2023-05-15T03:15:06;9.50;99.90
22680;DHT22;11507;44.858;10.374;2023-05-15T03:17:32;9.60;99.90
22680;DHT22;11507;44.858;10.374;2023-05-15T03:19:58;9.50;99.90
22680;DHT22;11507;44.858;10.374;2023-05-15T03:22:24;9.60;99.90
22680;DHT22;11507;44.858;10.374;2023-05-15T03:24:50;9.60;99.90
22680;DHT22;11507;44.858;10.374;2023-05-15T03:27:16;9.50;99.90
22680;DHT22;11507;44.858;10.374;2023-05-15T03:29:42;9.50;99.90
22680;DHT22;11507;44.858;10.374;2023-05-15T03:32:08;9.50;99.90
22680;DHT22;11507;44.858;10.374;2023-05-15T03:34:33;9.50;99.90
22680;DHT22;11507;44.858;10.374;2023-05-15T03:36:59;9.50;99.90
22680;DHT22;11507;44.858;10.374;2023-05-15T03:39:26;9.50;99.90
22680;DHT22;11507;44.858;10.374;2023-05-15T03:41:52;9.50;99.90
22680;DHT22;11507;44.858;10.374;2023-05-15T03:44:21;9.50;99.90
22680;DHT22;11507;44.858;10.374;2023-05-15T03:46:46;9.60;99.90
22680;DHT22;11507;44.858;10.374;2023-05-15T03:49:12;9.70;99.90
22680;DHT22;11507;44.858;10.374;2023-05-15T03:51:38;9.70;99.90
22680;DHT22;11507;44.858;10.374;2023-05-15T03:54:04;9.70;99.90
22680;DHT22;11507;44.858;10.374;2023-05-15T03:56:31;9.70;99.90
22680;DHT22;11507;44.858;10.374;2023-05-15T03:58:58;9.70;99.90
22680;DHT22;11507;44.858;10.374;2023-05-15T04:01:23;9.70;99.90
22680;DHT22;11507;44.858;10.374;2023-05-15T04:03:49;9.70;99.90
22680;DHT22;11507;44.858;10.374;2023-05-15T04:06:15;9.70;99.90
22680;DHT22;11507;44.858;10.374;2023-05-15T04:08:41;9.80;99.90
22680;DHT22;11507;44.858;10.374;2023-05-15T04:11:08;9.90;99.90
22680;DHT22;11507;44.858;10.374;2023-05-15T04:13:34;10.00;99.90
22680;DHT22;11507;44.858;10.374;2023-05-15T04:16:01;10.10;99.90
22680;DHT22;11507;44.858;10.374;2023-05-15T04:18:28;10.10;99.90
22680;DHT22;11507;44.858;10.374;2023-05-15T04:20:54;10.20;99.90
22680;DHT22;11507;44.858;10.374;2023-05-15T04:23:20;10.30;99.90
22680;DHT22;11507;44.858;10.374;2023-05-15T04:25:45;10.40;99.90
22680;DHT22;11507;44.858;10.374;2023-05-15T04:28:13;10.40;99.90
22680;DHT22;11507;44.858;10.374;2023-05-15T04:30:39;10.40;99.90
22680;DHT22;11507;44.858;10.374;2023-05-15T04:33:04;10.50;99.90
22680;DHT22;11507;44.858;10.374;2023-05-15T04:35:30;10.60;99.90
22680;DHT22;11507;44.858;10.374;2023-05-15T04:37:56;10.60;99.90
22680;DHT22;11507;44.858;10.374;2023-05-15T04:40:22;10.70;99.90
22680;DHT22;11507;44.858;10.374;2023-05-15T04:42:48;10.80;99.90
22680;DHT22;11507;44.858;10.374;2023-05-15T04:45:13;10.90;99.90
22680;DHT22;11507;44.858;10.374;2023-05-15T04:47:39;11.00;99.90
22680;DHT22;11507;44.858;10.374;2023-05-15T04:50:06;11.10;99.90
22680;DHT22;11507;44.858;10.374;2023-05-15T04:52:34;11.10;99.90
22680;DHT22;11507;44.858;10.374;2023-05-15T04:55:00;11.20;99.90
22680;DHT22;11507;44.858;10.374;2023-05-15T04:57:26;11.30;99.90
22680;DHT22;11507;44.858;10.374;2023-05-15T04:59:52;11.30;99.90
22680;DHT22;11507;44.858;10.374;2023-05-15T05:02:21;11.30;99.90
22680;DHT22;11507;44.858;10.374;2023-05-15T05:04:47;11.40;99.90
22680;DHT22;11507;44.858;10.374;2023-05-15T05:07:13;11.50;99.90
22680;DHT22;11507;44.858;10.374;2023-05-15T05:09:39;11.50;99.90
22680;DHT22;11507;44.858;10.374;2023-05-15T05:12:08;11.60;99.90
22680;DHT22;11507;44.858;10.374;2023-05-15T05:14:34;11.70;99.90
22680;DHT22;11507;44.858;10.374;2023-05-15T05:17:00;11.80;99.90
22680;DHT22;11507;44.858;10.374;2023-05-15T05:19:26;12.00;99.90
22680;DHT22;11507;44.858;10.374;2023-05-15T05:21:59;12.10;99.90
22680;DHT22;11507;44.858;10.374;2023-05-15T05:24:26;12.20;99.90
22680;DHT22;11507;44.858;10.374;2023-05-15T05:26:54;12.30;99.90
22680;DHT22;11507;44.858;10.374;2023-05-15T05:29:26;12.40;99.90
22680;DHT22;11507;44.858;10.374;2023-05-15T05:31:56;12.50;99.90
22680;DHT22;11507;44.858;10.374;2023-05-15T05:34:28;12.50;99.90
22680;DHT22;11507;44.858;10.374;2023-05-15T05:37:00;12.60;99.90
22680;DHT22;11507;44.858;10.374;2023-05-15T05:39:26;12.80;99.90
22680;DHT22;11507;44.858;10.374;2023-05-15T05:41:51;13.00;99.90
22680;DHT22;11507;44.858;10.374;2023-05-15T05:44:17;13.20;99.90
22680;DHT22;11507;44.858;10.374;2023-05-15T05:46:43;13.20;99.90
22680;DHT22;11507;44.858;10.374;2023-05-15T05:49:10;13.30;99.90
22680;DHT22;11507;44.858;10.374;2023-05-15T05:51:39;13.40;99.90
22680;DHT22;11507;44.858;10.374;2023-05-15T05:54:05;13.50;99.90
22680;DHT22;11507;44.858;10.374;2023-05-15T05:56:30;13.60;99.90
22680;DHT22;11507;44.858;10.374;2023-05-15T05:58:56;13.70;99.90
22680;DHT22;11507;44.858;10.374;2023-05-15T06:01:24;13.80;99.90
22680;DHT22;11507;44.858;10.374;2023-05-15T06:03:50;13.90;99.90
22680;DHT22;11507;44.858;10.374;2023-05-15T06:06:16;14.10;99.90
22680;DHT22;11507;44.858;10.374;2023-05-15T06:08:41;14.20;99.90
22680;DHT22;11507;44.858;10.374;2023-05-15T06:11:07;14.20;99.90
22680;DHT22;11507;44.858;10.374;2023-05-15T06:13:33;14.30;99.90
22680;DHT22;11507;44.858;10.374;2023-05-15T06:15:59;14.40;99.90
22680;DHT22;11507;44.858;10.374;2023-05-15T06:18:25;14.40;99.90
22680;DHT22;11507;44.858;10.374;2023-05-15T06:20:51;14.50;99.90
22680;DHT22;11507;44.858;10.374;2023-05-15T06:23:18;14.30;99.90
22680;DHT22;11507;44.858;10.374;2023-05-15T06:25:43;14.30;99.90
22680;DHT22;11507;44.858;10.374;2023-05-15T06:28:09;14.30;99.90
22680;DHT22;11507;44.858;10.374;2023-05-15T06:30:36;14.40;99.90
22680;DHT22;11507;44.858;10.374;2023-05-15T06:33:02;14.60;99.90
22680;DHT22;11507;44.858;10.374;2023-05-15T06:35:28;14.70;99.90
22680;DHT22;11507;44.858;10.374;2023-05-15T06:37:53;14.70;99.90
22680;DHT22;11507;44.858;10.374;2023-05-15T06:40:19;14.70;99.90
22680;DHT22;11507;44.858;10.374;2023-05-15T06:42:45;14.70;99.90
22680;DHT22;11507;44.858;10.374;2023-05-15T06:45:11;15.00;99.90
22680;DHT22;11507;44.858;10.374;2023-05-15T06:47:38;15.10;99.90
22680;DHT22;11507;44.858;10.374;2023-05-15T06:50:05;15.30;99.90
22680;DHT22;11507;44.858;10.374;2023-05-15T06:52:31;15.50;99.90
22680;DHT22;11507;44.858;10.374;2023-05-15T06:54:56;15.60;99.90
22680;DHT22;11507;44.858;10.374;2023-05-15T06:57:22;15.50;99.90
22680;DHT22;11507;44.858;10.374;2023-05-15T06:59:48;15.50;99.90
22680;DHT22;11507;44.858;10.374;2023-05-15T07:02:14;15.50;99.90
22680;DHT22;11507;44.858;10.374;2023-05-15T07:04:40;15.60;99.90
22680;DHT22;11507;44.858;10.374;2023-05-15T07:07:06;15.60;99.90
22680;DHT22;11507;44.858;10.374;2023-05-15T07:09:32;15.70;99.90
22680;DHT22;11507;44.858;10.374;2023-05-15T07:11:57;15.80;99.90
22680;DHT22;11507;44.858;10.374;2023-05-15T07:14:23;15.70;99.90
22680;DHT22;11507;44.858;10.374;2023-05-15T07:16:49;15.70;99.90
22680;DHT22;11507;44.858;10.374;2023-05-15T07:19:18;15.70;99.90
22680;DHT22;11507;44.858;10.374;2023-05-15T07:21:47;15.70;99.90
22680;DHT22;11507;44.858;10.374;2023-05-15T07:24:14;15.90;99.90
22680;DHT22;11507;44.858;10.374;2023-05-15T07:26:40;16.00;99.90
22680;DHT22;11507;44.858;10.374;2023-05-15T07:29:06;16.10;99.90
22680;DHT22;11507;44.858;10.374;2023-05-15T07:31:38;16.30;99.90
22680;DHT22;11507;44.858;10.374;2023-05-15T07:34:05;16.60;99.90
22680;DHT22;11507;44.858;10.374;2023-05-15T07:36:30;16.90;99.90
22680;DHT22;11507;44.858;10.374;2023-05-15T07:38:58;17.10;99.90
22680;DHT22;11507;44.858;10.374;2023-05-15T07:41:26;17.10;99.90
22680;DHT22;11507;44.858;10.374;2023-05-15T07:43:54;17.30;99.90
22680;DHT22;11507;44.858;10.374;2023-05-15T07:46:22;17.40;99.90
22680;DHT22;11507;44.858;10.374;2023-05-15T07:48:48;17.40;99.90
22680;DHT22;11507;44.858;10.374;2023-05-15T07:51:14;17.40;99.90
22680;DHT22;11507;44.858;10.374;2023-05-15T07:53:40;17.50;99.90
22680;DHT22;11507;44.858;10.374;2023-05-15T07:56:07;17.80;99.90
22680;DHT22;11507;44.858;10.374;2023-05-15T07:58:33;18.00;99.90
22680;DHT22;11507;44.858;10.374;2023-05-15T08:01:03;18.00;99.90
22680;DHT22;11507;44.858;10.374;2023-05-15T08:03:28;18.00;99.90
22680;DHT22;11507;44.858;10.374;2023-05-15T08:05:55;18.30;99.90
22680;DHT22;11507;44.858;10.374;2023-05-15T08:08:21;18.50;99.90
22680;DHT22;11507;44.858;10.374;2023-05-15T08:10:54;18.50;99.90
22680;DHT22;11507;44.858;10.374;2023-05-15T08:13:23;18.60;99.90
22680;DHT22;11507;44.858;10.374;2023-05-15T08:15:50;18.60;99.90
22680;DHT22;11507;44.858;10.374;2023-05-15T08:18:15;18.60;99.90
22680;DHT22;11507;44.858;10.374;2023-05-15T08:20:42;18.50;99.90
22680;DHT22;11507;44.858;10.374;2023-05-15T08:23:08;18.60;99.90
22680;DHT22;11507;44.858;10.374;2023-05-15T08:25:37;18.60;99.90
22680;DHT22;11507;44.858;10.374;2023-05-15T08:28:04;18.90;99.90
22680;DHT22;11507;44.858;10.374;2023-05-15T08:30:31;19.20;99.90
22680;DHT22;11507;44.858;10.374;2023-05-15T08:32:57;19.30;99.90
22680;DHT22;11507;44.858;10.374;2023-05-15T08:35:23;19.50;99.90
22680;DHT22;11507;44.858;10.374;2023-05-15T08:37:55;19.60;99.90
22680;DHT22;11507;44.858;10.374;2023-05-15T08:40:21;19.70;99.90
22680;DHT22;11507;44.858;10.374;2023-05-15T08:42:52;19.70;99.90
22680;DHT22;11507;44.858;10.374;2023-05-15T08:45:20;19.80;99.90
22680;DHT22;11507;44.858;10.374;2023-05-15T08:47:48;20.10;99.90
22680;DHT22;11507;44.858;10.374;2023-05-15T08:50:15;20.40;99.90
22680;DHT22;11507;44.858;10.374;2023-05-15T08:52:44;20.60;99.90
22680;DHT22;11507;44.858;10.374;2023-05-15T08:55:15;20.70;99.90
22680;DHT22;11507;44.858;10.374;2023-05-15T08:57:43;20.70;99.90
22680;DHT22;11507;44.858;10.374;2023-05-15T09:00:10;20.80;99.90
22680;DHT22;11507;44.858;10.374;2023-05-15T09:02:40;21.10;99.90
22680;DHT22;11507;44.858;10.374;2023-05-15T09:05:08;21.30;99.90
22680;DHT22;11507;44.858;10.374;2023-05-15T09:07:34;21.60;99.90
22680;DHT22;11507;44.858;10.374;2023-05-15T09:10:05;21.70;99.90
22680;DHT22;11507;44.858;10.374;2023-05-15T09:12:34;22.00;99.90
22680;DHT22;11507;44.858;10.374;2023-05-15T09:15:28;22.00;99.90
22680;DHT22;11507;44.858;10.374;2023-05-15T09:17:57;21.90;99.90
22680;DHT22;11507;44.858;10.374;2023-05-15T09:20:29;21.80;99.90
22680;DHT22;11507;44.858;10.374;2023-05-15T09:22:56;21.70;99.90
22680;DHT22;11507;44.858;10.374;2023-05-15T09:25:42;21.70;99.90
22680;DHT22;11507;44.858;10.374;2023-05-15T09:28:32;21.80;99.90
22680;DHT22;11507;44.858;10.374;2023-05-15T09:31:04;22.10;99.90
22680;DHT22;11507;44.858;10.374;2023-05-15T09:33:33;22.50;99.90
22680;DHT22;11507;44.858;10.374;2023-05-15T09:36:07;22.60;99.90
22680;DHT22;11507;44.858;10.374;2023-05-15T09:38:40;23.00;99.90
22680;DHT22;11507;44.858;10.374;2023-05-15T09:41:23;23.20;99.90
22680;DHT22;11507;44.858;10.374;2023-05-15T09:43:53;23.70;99.90
22680;DHT22;11507;44.858;10.374;2023-05-15T09:46:22;24.10;99.90
22680;DHT22;11507;44.858;10.374;2023-05-15T09:48:56;24.30;99.90
22680;DHT22;11507;44.858;10.374;2023-05-15T09:51:26;24.50;99.90
22680;DHT22;11507;44.858;10.374;2023-05-15T09:53:54;24.80;99.90
22680;DHT22;11507;44.858;10.374;2023-05-15T09:56:20;25.10;99.90
22680;DHT22;11507;44.858;10.374;2023-05-15T09:58:57;25.00;99.90
22680;DHT22;11507;44.858;10.374;2023-05-15T10:01:24;25.30;99.90
22680;DHT22;11507;44.858;10.374;2023-05-15T10:04:01;25.40;99.90
22680;DHT22;11507;44.858;10.374;2023-05-15T10:06:35;25.50;99.90
22680;DHT22;11507;44.858;10.374;2023-05-15T10:09:02;25.40;99.90
22680;DHT22;11507;44.858;10.374;2023-05-15T10:11:36;25.50;99.90
22680;DHT22;11507;44.858;10.374;2023-05-15T10:14:07;25.80;99.90
22680;DHT22;11507;44.858;10.374;2023-05-15T10:16:34;26.10;99.90
22680;DHT22;11507;44.858;10.374;2023-05-15T10:19:09;26.60;99.90
22680;DHT22;11507;44.858;10.374;2023-05-15T10:21:39;26.60;99.90
22680;DHT22;11507;44.858;10.374;2023-05-15T10:24:06;26.80;99.90
22680;DHT22;11507;44.858;10.374;2023-05-15T10:26:36;26.50;98.40
22680;DHT22;11507;44.858;10.374;2023-05-15T10:31:35;25.80;99.90
22680;DHT22;11507;44.858;10.374;2023-05-15T10:34:04;25.90;99.90
22680;DHT22;11507;44.858;10.374;2023-05-15T10:36:32;26.10;99.90
22680;DHT22;11507;44.858;10.374;2023-05-15T10:39:03;26.20;99.90
22680;DHT22;11507;44.858;10.374;2023-05-15T10:41:34;25.60;99.20
22680;DHT22;11507;44.858;10.374;2023-05-15T10:44:00;25.60;97.30
22680;DHT22;11507;44.858;10.374;2023-05-15T10:46:31;25.70;99.90
22680;DHT22;11507;44.858;10.374;2023-05-15T10:48:58;25.80;99.40
22680;DHT22;11507;44.858;10.374;2023-05-15T10:51:29;26.00;99.90
22680;DHT22;11507;44.858;10.374;2023-05-15T10:54:01;26.30;99.90
22680;DHT22;11507;44.858;10.374;2023-05-15T10:56:36;26.60;99.90
22680;DHT22;11507;44.858;10.374;2023-05-15T10:59:10;26.60;99.90
22680;DHT22;11507;44.858;10.374;2023-05-15T11:01:38;26.70;98.60
22680;DHT22;11507;44.858;10.374;2023-05-15T11:04:14;26.90;98.80
22680;DHT22;11507;44.858;10.374;2023-05-15T11:06:42;27.20;99.90
22680;DHT22;11507;44.858;10.374;2023-05-15T11:11:57;28.00;98.30
22680;DHT22;11507;44.858;10.374;2023-05-15T11:14:34;28.20;97.60
22680;DHT22;11507;44.858;10.374;2023-05-15T11:17:03;28.40;97.40
22680;DHT22;11507;44.858;10.374;2023-05-15T11:19:36;28.70;94.70
22680;DHT22;11507;44.858;10.374;2023-05-15T11:22:16;28.80;95.50
22680;DHT22;11507;44.858;10.374;2023-05-15T11:27:31;29.10;91.60
22680;DHT22;11507;44.858;10.374;2023-05-15T11:30:18;29.00;93.20
22680;DHT22;11507;44.858;10.374;2023-05-15T11:35:39;28.90;91.60
22680;DHT22;11507;44.858;10.374;2023-05-15T11:38:10;29.40;94.60
22680;DHT22;11507;44.858;10.374;2023-05-15T11:46:07;30.30;92.40
22680;DHT22;11507;44.858;10.374;2023-05-15T11:48:43;30.10;90.20
22680;DHT22;11507;44.858;10.374;2023-05-15T11:51:21;29.60;91.50
22680;DHT22;11507;44.858;10.374;2023-05-15T11:53:53;29.50;92.20
22680;DHT22;11507;44.858;10.374;2023-05-15T11:56:21;29.40;86.30
22680;DHT22;11507;44.858;10.374;2023-05-15T11:58:49;29.60;92.70
22680;DHT22;11507;44.858;10.374;2023-05-15T12:01:16;29.80;90.90
22680;DHT22;11507;44.858;10.374;2023-05-15T12:03:46;29.50;87.40
22680;DHT22;11507;44.858;10.374;2023-05-15T12:06:11;29.20;89.30
22680;DHT22;11507;44.858;10.374;2023-05-15T12:08:37;29.40;93.00
22680;DHT22;11507;44.858;10.374;2023-05-15T12:11:04;29.70;92.70
22680;DHT22;11507;44.858;10.374;2023-05-15T12:13:31;30.20;91.60
22680;DHT22;11507;44.858;10.374;2023-05-15T12:15:58;30.00;84.40
22680;DHT22;11507;44.858;10.374;2023-05-15T12:18:24;29.20;88.30
22680;DHT22;11507;44.858;10.374;2023-05-15T12:20:51;29.10;90.20
22680;DHT22;11507;44.858;10.374;2023-05-15T12:23:21;29.50;91.60
22680;DHT22;11507;44.858;10.374;2023-05-15T12:25:49;29.90;86.90
22680;DHT22;11507;44.858;10.374;2023-05-15T12:28:16;30.00;85.90
22680;DHT22;11507;44.858;10.374;2023-05-15T12:30:43;30.00;89.10
22680;DHT22;11507;44.858;10.374;2023-05-15T12:33:09;30.10;85.30
22680;DHT22;11507;44.858;10.374;2023-05-15T12:35:46;30.30;87.10
22680;DHT22;11507;44.858;10.374;2023-05-15T12:38:14;30.10;83.10
22680;DHT22;11507;44.858;10.374;2023-05-15T12:40:43;30.50;85.00
22680;DHT22;11507;44.858;10.374;2023-05-15T12:43:10;30.50;89.90
22680;DHT22;11507;44.858;10.374;2023-05-15T12:45:38;31.00;83.20
22680;DHT22;11507;44.858;10.374;2023-05-15T12:48:04;31.20;84.20
22680;DHT22;11507;44.858;10.374;2023-05-15T12:50:34;31.30;86.80
22680;DHT22;11507;44.858;10.374;2023-05-15T12:53:02;31.20;76.80
22680;DHT22;11507;44.858;10.374;2023-05-15T12:55:32;31.70;83.40
22680;DHT22;11507;44.858;10.374;2023-05-15T12:58:05;32.20;81.50
22680;DHT22;11507;44.858;10.374;2023-05-15T13:00:34;32.50;79.00
22680;DHT22;11507;44.858;10.374;2023-05-15T13:03:01;32.80;80.80
22680;DHT22;11507;44.858;10.374;2023-05-15T13:05:31;32.80;77.50
22680;DHT22;11507;44.858;10.374;2023-05-15T13:07:58;32.30;72.80
22680;DHT22;11507;44.858;10.374;2023-05-15T13:10:25;31.20;77.70
22680;DHT22;11507;44.858;10.374;2023-05-15T13:12:52;30.80;82.20
22680;DHT22;11507;44.858;10.374;2023-05-15T13:17:57;31.30;83.80
22680;DHT22;11507;44.858;10.374;2023-05-15T13:20:23;31.80;80.40
22680;DHT22;11507;44.858;10.374;2023-05-15T13:22:49;31.90;76.90
22680;DHT22;11507;44.858;10.374;2023-05-15T13:25:20;30.80;75.40
22680;DHT22;11507;44.858;10.374;2023-05-15T13:27:49;30.30;76.00
22680;DHT22;11507;44.858;10.374;2023-05-15T13:30:18;30.50;80.10
22680;DHT22;11507;44.858;10.374;2023-05-15T13:32:44;31.00;81.10
22680;DHT22;11507;44.858;10.374;2023-05-15T13:35:10;30.60;76.10
22680;DHT22;11507;44.858;10.374;2023-05-15T13:37:36;30.10;74.20
22680;DHT22;11507;44.858;10.374;2023-05-15T13:40:09;29.80;80.30
22680;DHT22;11507;44.858;10.374;2023-05-15T13:42:37;29.80;77.50
22680;DHT22;11507;44.858;10.374;2023-05-15T13:45:04;30.30;80.40
22680;DHT22;11507;44.858;10.374;2023-05-15T13:47:30;31.00;77.80
22680;DHT22;11507;44.858;10.374;2023-05-15T13:49:56;31.30;74.00
22680;DHT22;11507;44.858;10.374;2023-05-15T13:52:27;31.50;74.90
22680;DHT22;11507;44.858;10.374;2023-05-15T13:54:56;31.80;78.30
22680;DHT22;11507;44.858;10.374;2023-05-15T13:57:22;31.80;75.40
22680;DHT22;11507;44.858;10.374;2023-05-15T13:59:49;31.80;71.50
22680;DHT22;11507;44.858;10.374;2023-05-15T14:02:15;31.80;70.50
22680;DHT22;11507;44.858;10.374;2023-05-15T14:04:45;32.10;72.00
22680;DHT22;11507;44.858;10.374;2023-05-15T14:07:11;32.10;68.40
22680;DHT22;11507;44.858;10.374;2023-05-15T14:09:38;31.90;69.50
22680;DHT22;11507;44.858;10.374;2023-05-15T14:12:04;31.80;70.20
22680;DHT22;11507;44.858;10.374;2023-05-15T14:14:30;31.80;72.40
22680;DHT22;11507;44.858;10.374;2023-05-15T14:16:56;31.60;69.90
22680;DHT22;11507;44.858;10.374;2023-05-15T14:19:22;31.40;72.60
22680;DHT22;11507;44.858;10.374;2023-05-15T14:21:48;31.00;73.90
22680;DHT22;11507;44.858;10.374;2023-05-15T14:24:14;31.10;70.60
22680;DHT22;11507;44.858;10.374;2023-05-15T14:26:40;31.00;66.40
22680;DHT22;11507;44.858;10.374;2023-05-15T14:29:08;30.80;67.30
22680;DHT22;11507;44.858;10.374;2023-05-15T14:31:34;31.00;71.60
22680;DHT22;11507;44.858;10.374;2023-05-15T14:34:00;31.40;66.20
22680;DHT22;11507;44.858;10.374;2023-05-15T14:36:26;31.70;67.70
22680;DHT22;11507;44.858;10.374;2023-05-15T14:38:52;31.80;67.80
22680;DHT22;11507;44.858;10.374;2023-05-15T14:41:19;31.60;69.30
22680;DHT22;11507;44.858;10.374;2023-05-15T14:43:46;31.70;67.80
22680;DHT22;11507;44.858;10.374;2023-05-15T14:46:15;31.80;68.30
22680;DHT22;11507;44.858;10.374;2023-05-15T14:48:41;32.00;67.00
22680;DHT22;11507;44.858;10.374;2023-05-15T14:51:09;32.30;67.20
22680;DHT22;11507;44.858;10.374;2023-05-15T14:53:35;32.60;67.50
22680;DHT22;11507;44.858;10.374;2023-05-15T14:56:03;32.60;66.60
22680;DHT22;11507;44.858;10.374;2023-05-15T14:58:29;32.40;65.90
22680;DHT22;11507;44.858;10.374;2023-05-15T15:00:55;32.00;66.60
22680;DHT22;11507;44.858;10.374;2023-05-15T15:03:21;31.90;68.20
22680;DHT22;11507;44.858;10.374;2023-05-15T15:05:49;32.00;66.90
22680;DHT22;11507;44.858;10.374;2023-05-15T15:08:16;32.40;67.20
22680;DHT22;11507;44.858;10.374;2023-05-15T15:10:42;32.30;64.10
22680;DHT22;11507;44.858;10.374;2023-05-15T15:13:08;32.30;65.10
22680;DHT22;11507;44.858;10.374;2023-05-15T15:15:36;32.10;66.60
22680;DHT22;11507;44.858;10.374;2023-05-15T15:18:02;32.00;64.60
22680;DHT22;11507;44.858;10.374;2023-05-15T15:20:28;31.90;66.90
22680;DHT22;11507;44.858;10.374;2023-05-15T15:22:55;31.80;63.70
22680;DHT22;11507;44.858;10.374;2023-05-15T15:25:21;31.80;68.30
22680;DHT22;11507;44.858;10.374;2023-05-15T15:27:48;31.60;66.40
22680;DHT22;11507;44.858;10.374;2023-05-15T15:30:15;31.40;66.80
22680;DHT22;11507;44.858;10.374;2023-05-15T15:32:42;31.60;66.50
22680;DHT22;11507;44.858;10.374;2023-05-15T15:35:08;31.50;65.70
22680;DHT22;11507;44.858;10.374;2023-05-15T15:37:34;31.60;67.60
22680;DHT22;11507;44.858;10.374;2023-05-15T15:40:03;31.60;69.50
22680;DHT22;11507;44.858;10.374;2023-05-15T15:42:30;31.80;68.80
22680;DHT22;11507;44.858;10.374;2023-05-15T15:45:00;31.50;66.60
22680;DHT22;11507;44.858;10.374;2023-05-15T15:47:27;31.40;67.60
22680;DHT22;11507;44.858;10.374;2023-05-15T15:49:55;31.10;64.80
22680;DHT22;11507;44.858;10.374;2023-05-15T15:52:21;30.60;70.10
22680;DHT22;11507;44.858;10.374;2023-05-15T15:54:48;30.20;66.90
22680;DHT22;11507;44.858;10.374;2023-05-15T15:57:20;30.10;69.50